Youngsville, Louisiana
Current Conditions -  °F | °C
As of 6:53 PM on Thursday 27 Nov 2014 (Local Time) from KLFT Reporting Station
Clear Clear  
Wind Chill: 45°   Ceiling: Unl
Heat Index: 49°   Visibility: 10mi
Dew Point: 32°   Wind: 8mph
Humidity: 52%   Direction: 10°N
Pressure: 30.45"   Gusts: NA
Location:  30.1°N, 91.99°W
Report Text: KLFT 280053Z 01007KT 10SM CLR 09/00 A3045 RMK AO2 SLP311 T00940000
Loading
Personal Weather Stations






























Interactive Weather Map New forecast layout! Learn more

10-Day Weather Forecast

Advertisements
Track Severe Weather on mobile